createdAt,value
2019-05-25T00:01:23.933Z,93.40
2019-05-25T00:03:53.330Z,93.50
2019-05-25T00:06:23.401Z,93.70
2019-05-25T00:08:53.382Z,94.00
2019-05-25T00:11:23.425Z,94.00
2019-05-25T00:13:53.466Z,94.30
2019-05-25T00:16:23.470Z,94.10
2019-05-25T00:18:53.588Z,94.20
2019-05-25T00:21:23.627Z,94.30
2019-05-25T00:23:53.535Z,94.40
2019-05-25T00:26:23.704Z,94.80
2019-05-25T00:28:53.638Z,95.00
2019-05-25T00:31:23.717Z,95.30
2019-05-25T00:33:53.168Z,95.40
2019-05-25T00:36:22.613Z,95.50
2019-05-25T00:38:52.033Z,95.40
2019-05-25T00:41:21.428Z,95.60
2019-05-25T00:43:50.801Z,96.10
2019-05-25T00:46:20.145Z,96.40
2019-05-25T00:48:49.561Z,96.20
2019-05-25T00:51:19.003Z,96.90
2019-05-25T00:53:48.419Z,97.40
2019-05-25T00:56:17.865Z,97.20
2019-05-25T00:58:47.209Z,97.50
2019-05-25T01:01:16.563Z,97.40
2019-05-25T01:03:46.062Z,97.30
2019-05-25T01:06:15.784Z,97.70
2019-05-25T01:08:45.107Z,98.40
2019-05-25T01:11:14.733Z,98.00
2019-05-25T01:13:44.111Z,98.50
2019-05-25T01:16:13.537Z,98.90
2019-05-25T01:18:45.110Z,99.10
2019-05-25T01:21:14.477Z,99.20
2019-05-25T01:23:43.836Z,99.40
2019-05-25T01:26:13.275Z,99.50
2019-05-25T01:28:42.627Z,99.50
2019-05-25T01:31:11.992Z,99.70
2019-05-25T01:33:41.416Z,99.80
2019-05-25T01:36:10.735Z,99.80
2019-05-25T01:38:40.088Z,99.60
2019-05-25T01:41:09.474Z,99.30
2019-05-25T01:43:38.899Z,99.90
2019-05-25T01:46:08.336Z,99.90
2019-05-25T01:48:37.737Z,99.90
2019-05-25T01:51:07.146Z,99.90
2019-05-25T01:53:36.512Z,99.90
2019-05-25T01:56:05.994Z,99.90
2019-05-25T01:58:35.357Z,99.90
2019-05-25T02:01:05.283Z,99.90
2019-05-25T02:03:34.712Z,99.90
2019-05-25T02:06:04.253Z,99.90
2019-05-25T02:08:33.596Z,99.90
2019-05-25T02:11:03.038Z,99.90
2019-05-25T02:13:32.429Z,99.90
2019-05-25T02:16:01.819Z,99.90
2019-05-25T02:18:31.154Z,99.90
2019-05-25T02:21:00.493Z,99.90
2019-05-25T02:23:29.847Z,99.90
2019-05-25T02:25:59.538Z,99.90
2019-05-25T02:28:30.110Z,99.90
2019-05-25T02:30:59.863Z,99.90
2019-05-25T02:33:30.165Z,99.90
2019-05-25T02:36:00.231Z,99.90
2019-05-25T02:38:30.344Z,99.90
2019-05-25T02:41:00.629Z,99.90
2019-05-25T02:43:30.601Z,99.90
2019-05-25T02:46:00.784Z,99.90
2019-05-25T02:48:30.930Z,99.90
2019-05-25T02:51:01.191Z,99.90
2019-05-25T02:53:31.255Z,99.90
2019-05-25T02:56:01.364Z,99.90
2019-05-25T02:58:31.612Z,99.90
2019-05-25T03:01:01.744Z,99.90
2019-05-25T03:03:31.965Z,99.90
2019-05-25T03:06:02.695Z,99.90
2019-05-25T03:08:32.562Z,99.90
2019-05-25T03:11:02.450Z,99.90
2019-05-25T03:13:33.173Z,99.90
2019-05-25T03:16:02.682Z,99.90
2019-05-25T03:18:32.781Z,99.90
2019-05-25T03:21:02.881Z,99.90
2019-05-25T03:23:33.220Z,99.90
2019-05-25T03:26:03.197Z,99.90
2019-05-25T03:28:33.448Z,99.90
2019-05-25T03:31:03.504Z,99.90
2019-05-25T03:33:33.691Z,99.90
2019-05-25T03:36:03.877Z,99.90
2019-05-25T03:38:34.080Z,99.90
2019-05-25T03:41:04.218Z,99.90
2019-05-25T03:43:35.871Z,99.90
2019-05-25T03:46:05.320Z,99.90
2019-05-25T03:48:34.769Z,99.90
2019-05-25T03:51:04.838Z,99.90
2019-05-25T03:53:35.144Z,99.90
2019-05-25T03:56:06.402Z,99.90
2019-05-25T03:58:36.063Z,99.90
2019-05-25T04:01:05.439Z,99.90
2019-05-25T04:03:35.510Z,99.90
2019-05-25T04:06:05.805Z,99.90
2019-05-25T04:08:35.890Z,99.90
2019-05-25T04:11:06.008Z,99.90
2019-05-25T04:13:36.147Z,99.90
2019-05-25T04:16:06.263Z,99.90
2019-05-25T04:18:36.512Z,99.90
2019-05-25T04:21:06.818Z,99.90
2019-05-25T04:23:36.853Z,99.90
2019-05-25T04:26:21.511Z,99.90
2019-05-25T04:28:38.174Z,99.90
2019-05-25T04:31:07.482Z,99.90
2019-05-25T04:33:37.437Z,99.90
2019-05-25T04:36:07.714Z,99.90
2019-05-25T04:38:37.760Z,99.90
2019-05-25T04:41:07.819Z,99.90
2019-05-25T04:43:38.092Z,99.90
2019-05-25T04:46:08.155Z,99.90
2019-05-25T04:48:38.269Z,99.90
2019-05-25T04:51:08.609Z,99.90
2019-05-25T04:53:38.685Z,99.90
2019-05-25T04:56:08.750Z,99.90
2019-05-25T04:58:38.955Z,99.90
2019-05-25T05:01:09.018Z,99.90
2019-05-25T05:03:39.267Z,99.90
2019-05-25T05:06:09.351Z,99.90
2019-05-25T05:08:39.584Z,99.90
2019-05-25T05:11:09.770Z,99.90
2019-05-25T05:13:39.839Z,99.90
2019-05-25T05:16:10.003Z,99.90
2019-05-25T05:18:40.168Z,99.90
2019-05-25T05:21:10.600Z,99.90
2019-05-25T05:23:40.525Z,99.90
2019-05-25T05:26:10.816Z,99.90
2019-05-25T05:28:40.849Z,99.90
2019-05-25T05:31:23.136Z,99.90
2019-05-25T05:33:42.203Z,99.90
2019-05-25T05:36:13.106Z,99.90
2019-05-25T05:38:42.703Z,99.90
2019-05-25T05:41:13.304Z,99.90
2019-05-25T05:43:45.138Z,99.90
2019-05-25T05:46:15.792Z,99.90
2019-05-25T05:48:48.254Z,99.90
2019-05-25T05:51:21.030Z,99.90
2019-05-25T05:53:53.558Z,99.90
2019-05-25T05:56:22.998Z,99.90
2019-05-25T05:58:52.375Z,99.90
2019-05-25T06:01:21.815Z,99.90
2019-05-25T06:03:51.163Z,99.90
2019-05-25T06:06:20.603Z,99.90
2019-05-25T06:08:50.951Z,99.90
2019-05-25T06:11:21.286Z,98.80
2019-05-25T06:13:50.669Z,98.00
2019-05-25T06:16:20.044Z,97.50
2019-05-25T06:18:49.377Z,97.10
2019-05-25T06:21:18.828Z,97.00
2019-05-25T06:23:48.223Z,97.30
2019-05-25T06:26:17.666Z,96.80
2019-05-25T06:28:47.005Z,95.90
2019-05-25T06:31:16.369Z,95.20
2019-05-25T06:33:45.734Z,95.50
2019-05-25T06:36:15.101Z,95.80
2019-05-25T06:38:45.267Z,96.50
2019-05-25T06:41:15.410Z,95.10
2019-05-25T06:43:45.514Z,95.80
2019-05-25T06:46:15.751Z,95.60
2019-05-25T06:48:46.026Z,96.50
2019-05-25T06:51:15.917Z,96.50
2019-05-25T06:53:46.036Z,95.50
2019-05-25T06:56:16.238Z,94.40
2019-05-25T06:58:46.360Z,96.10
2019-05-25T07:01:16.450Z,95.40
2019-05-25T07:03:46.788Z,94.70
2019-05-25T07:06:16.937Z,95.40
2019-05-25T07:08:47.238Z,93.70
2019-05-25T07:11:17.384Z,91.90
2019-05-25T07:13:47.497Z,90.60
2019-05-25T07:16:17.568Z,92.00
2019-05-25T07:18:47.838Z,90.80
2019-05-25T07:21:17.790Z,91.40
2019-05-25T07:23:48.046Z,91.70
2019-05-25T07:26:18.441Z,91.30
2019-05-25T07:28:48.313Z,92.30
2019-05-25T07:31:18.445Z,93.10
2019-05-25T07:33:49.127Z,92.80
2019-05-25T07:36:18.953Z,92.30
2019-05-25T07:38:48.943Z,92.70
2019-05-25T07:41:18.995Z,92.30
2019-05-25T07:43:49.269Z,92.00
2019-05-25T07:46:19.424Z,92.80
2019-05-25T07:48:51.133Z,92.30
2019-05-25T07:51:20.494Z,92.30
2019-05-25T07:53:51.490Z,92.00
2019-05-25T07:56:22.418Z,91.80
2019-05-25T07:58:51.826Z,91.50
2019-05-25T08:01:21.176Z,91.60
2019-05-25T08:03:50.690Z,91.80
2019-05-25T08:06:21.298Z,91.70
2019-05-25T08:08:50.746Z,91.80
2019-05-25T08:11:20.878Z,88.40
2019-05-25T08:13:51.066Z,91.10
2019-05-25T08:16:21.214Z,90.30
2019-05-25T08:18:51.324Z,89.90
2019-05-25T08:21:21.416Z,88.90
2019-05-25T08:23:51.736Z,87.20
2019-05-25T08:26:21.765Z,84.80
2019-05-25T08:28:51.967Z,83.80
2019-05-25T08:31:22.019Z,85.00
2019-05-25T08:33:52.388Z,82.60
2019-05-25T08:36:22.366Z,84.30
2019-05-25T08:38:55.774Z,86.30
2019-05-25T08:41:25.096Z,83.40
2019-05-25T08:43:56.142Z,80.30
2019-05-25T08:46:25.581Z,81.20
2019-05-25T08:48:54.885Z,78.90
2019-05-25T08:51:24.244Z,78.70
2019-05-25T08:53:54.087Z,77.20
2019-05-25T08:56:23.527Z,78.10
2019-05-25T08:58:55.622Z,81.70
2019-05-25T09:01:24.699Z,81.40
2019-05-25T09:03:54.986Z,80.10
2019-05-25T09:06:25.455Z,81.20
2019-05-25T09:08:55.729Z,72.20
2019-05-25T09:11:25.059Z,72.60
2019-05-25T09:13:54.644Z,73.30
2019-05-25T09:16:24.064Z,65.70
2019-05-25T09:18:53.442Z,66.30
2019-05-25T09:21:22.771Z,68.20
2019-05-25T09:23:52.114Z,69.40
2019-05-25T09:26:21.532Z,66.60
2019-05-25T09:29:03.544Z,69.90
2019-05-25T09:31:21.970Z,68.90
2019-05-25T09:33:52.337Z,68.90
2019-05-25T09:36:21.693Z,67.70
2019-05-25T09:38:51.046Z,69.80
2019-05-25T09:41:21.413Z,67.90
2019-05-25T09:43:50.744Z,66.70
2019-05-25T09:46:20.131Z,66.80
2019-05-25T09:48:49.517Z,66.70
2019-05-25T09:51:18.962Z,64.10
2019-05-25T09:53:48.238Z,60.50
2019-05-25T09:56:17.648Z,59.40
2019-05-25T09:58:47.090Z,60.10
2019-05-25T10:01:16.469Z,62.70
2019-05-25T10:03:45.814Z,60.80
2019-05-25T10:06:15.134Z,60.40
2019-05-25T10:08:44.485Z,64.00
2019-05-25T10:11:13.813Z,66.40
2019-05-25T10:13:43.156Z,63.20
2019-05-25T10:16:12.489Z,61.70
2019-05-25T10:18:41.863Z,61.00
2019-05-25T10:21:11.186Z,59.90
2019-05-25T10:23:40.501Z,59.90
2019-05-25T10:26:10.133Z,58.50
2019-05-25T10:28:39.494Z,60.50
2019-05-25T10:31:08.881Z,61.70
2019-05-25T10:33:38.265Z,59.50
2019-05-25T10:36:07.758Z,60.80
2019-05-25T10:38:37.182Z,61.30
2019-05-25T10:41:06.578Z,62.00
2019-05-25T10:43:36.008Z,62.00
2019-05-25T10:46:05.842Z,62.50
2019-05-25T10:48:35.878Z,61.80
2019-05-25T10:51:05.898Z,62.50
2019-05-25T10:53:36.322Z,64.00
2019-05-25T10:56:06.026Z,63.70
2019-05-25T10:58:36.063Z,63.90
2019-05-25T11:01:06.036Z,63.50
2019-05-25T11:03:36.119Z,65.00
2019-05-25T11:06:06.077Z,63.80
2019-05-25T11:08:36.205Z,59.80
2019-05-25T11:11:08.920Z,60.00
2019-05-25T11:13:38.270Z,63.70
2019-05-25T11:16:07.634Z,60.60
2019-05-25T11:18:37.887Z,57.90
2019-05-25T11:21:07.228Z,59.00
2019-05-25T11:23:38.249Z,59.50
2019-05-25T11:26:07.597Z,59.50
2019-05-25T11:28:42.980Z,57.50
2019-05-25T11:31:12.336Z,58.40
2019-05-25T11:33:41.716Z,56.90
2019-05-25T11:36:11.073Z,57.10
2019-05-25T11:38:40.401Z,54.80
2019-05-25T11:41:09.707Z,55.60
2019-05-25T11:43:39.133Z,52.40
2019-05-25T11:46:08.452Z,51.90
2019-05-25T11:48:37.789Z,48.90
2019-05-25T11:51:07.106Z,49.80
2019-05-25T11:53:36.843Z,50.00
2019-05-25T11:56:06.792Z,49.00
2019-05-25T11:58:46.955Z,51.90
2019-05-25T12:01:07.885Z,49.00
2019-05-25T12:03:37.266Z,51.20
2019-05-25T12:06:06.927Z,52.00
2019-05-25T12:08:37.082Z,52.30
2019-05-25T12:11:06.959Z,53.20
2019-05-25T12:13:37.194Z,52.60
2019-05-25T12:16:07.131Z,52.50
2019-05-25T12:18:37.081Z,51.80
2019-05-25T12:21:07.184Z,48.70
2019-05-25T12:23:37.275Z,50.20
2019-05-25T12:26:07.219Z,50.30
2019-05-25T12:28:37.502Z,52.90
2019-05-25T12:31:07.326Z,54.30
2019-05-25T12:33:37.314Z,53.40
2019-05-25T12:36:09.063Z,50.90
2019-05-25T12:38:38.456Z,48.70
2019-05-25T12:41:07.906Z,49.40
2019-05-25T12:43:37.464Z,52.40
2019-05-25T12:46:07.614Z,54.10
2019-05-25T12:48:37.547Z,55.00
2019-05-25T12:51:07.651Z,57.80
2019-05-25T12:53:38.072Z,57.90
2019-05-25T12:56:07.966Z,58.00
2019-05-25T12:58:37.675Z,57.70
2019-05-25T13:01:07.679Z,56.90
2019-05-25T13:03:37.691Z,57.40
2019-05-25T13:06:07.732Z,57.50
2019-05-25T13:08:37.802Z,60.30
2019-05-25T13:11:09.690Z,58.30
2019-05-25T13:13:38.863Z,58.80
2019-05-25T13:16:08.260Z,59.90
2019-05-25T13:18:38.039Z,62.00
2019-05-25T13:21:08.109Z,61.00
2019-05-25T13:23:37.934Z,64.30
2019-05-25T13:26:08.162Z,64.20
2019-05-25T13:28:38.012Z,65.50
2019-05-25T13:31:11.603Z,58.30
2019-05-25T13:33:39.362Z,55.80
2019-05-25T13:36:08.752Z,52.80
2019-05-25T13:38:38.153Z,49.70
2019-05-25T13:41:08.162Z,50.30
2019-05-25T13:43:38.188Z,49.00
2019-05-25T13:46:08.273Z,48.80
2019-05-25T13:48:38.577Z,44.90
2019-05-25T13:51:08.274Z,44.80
2019-05-25T13:53:38.343Z,46.80
2019-05-25T13:56:08.483Z,46.40
2019-05-25T13:58:39.241Z,48.60
2019-05-25T14:01:08.827Z,48.60
2019-05-25T14:03:38.393Z,48.00
2019-05-25T14:06:08.451Z,45.90
2019-05-25T14:08:38.422Z,44.90
2019-05-25T14:11:08.727Z,44.60
2019-05-25T14:13:38.546Z,43.70
2019-05-25T14:16:08.611Z,42.50
2019-05-25T14:18:38.613Z,44.30
2019-05-25T14:21:08.822Z,40.80
2019-05-25T14:23:38.975Z,41.00
2019-05-25T14:26:08.669Z,43.60
2019-05-25T14:28:38.725Z,46.50
2019-05-25T14:31:11.713Z,43.10
2019-05-25T14:33:41.050Z,43.80
2019-05-25T14:36:10.514Z,41.80
2019-05-25T14:38:39.958Z,40.70
2019-05-25T14:41:09.296Z,40.80
2019-05-25T14:43:38.869Z,43.70
2019-05-25T14:46:08.866Z,46.40
2019-05-25T14:48:38.849Z,48.90
2019-05-25T14:51:09.324Z,51.10
2019-05-25T14:53:39.040Z,49.40
2019-05-25T14:56:09.244Z,48.70
2019-05-25T14:58:39.154Z,48.10
2019-05-25T15:01:09.043Z,48.30
2019-05-25T15:03:39.046Z,50.10
2019-05-25T15:06:09.113Z,53.40
2019-05-25T15:08:39.114Z,50.40
2019-05-25T15:11:09.165Z,49.40
2019-05-25T15:13:39.291Z,48.50
2019-05-25T15:31:45.878Z,57.80
2019-05-25T15:34:15.222Z,55.50
2019-05-25T15:36:44.571Z,57.30
2019-05-25T15:39:13.864Z,55.80
2019-05-25T15:41:43.233Z,56.40
2019-05-25T15:44:12.597Z,57.10
2019-05-25T15:46:42.024Z,57.10
2019-05-25T15:49:11.390Z,57.40
2019-05-25T15:51:40.695Z,59.50
2019-05-25T15:54:10.790Z,59.80
2019-05-25T15:56:40.307Z,57.80
2019-05-25T15:59:09.657Z,58.20
2019-05-25T16:01:39.583Z,57.60
2019-05-25T16:04:09.610Z,57.20
2019-05-25T16:06:39.697Z,56.90
2019-05-25T16:09:09.977Z,57.80
2019-05-25T16:11:39.743Z,57.80
2019-05-25T16:14:09.720Z,57.80
2019-05-25T16:16:39.959Z,56.60
2019-05-25T16:19:09.994Z,58.10
2019-05-25T16:21:43.447Z,58.20
2019-05-25T16:24:12.782Z,57.80
2019-05-25T16:26:46.047Z,58.30
2019-05-25T16:29:13.110Z,57.10
2019-05-25T16:31:42.402Z,57.30
2019-05-25T16:34:11.727Z,57.10
2019-05-25T16:36:41.995Z,57.40
2019-05-25T16:39:11.349Z,58.60
2019-05-25T16:41:40.677Z,57.60
2019-05-25T16:44:10.001Z,58.70
2019-05-25T16:46:39.959Z,58.60
2019-05-25T16:49:10.051Z,58.20
2019-05-25T16:51:39.894Z,59.10
2019-05-25T16:54:29.293Z,59.90
2019-05-25T16:56:58.607Z,60.20
2019-05-25T16:59:27.938Z,59.40
2019-05-25T17:01:57.283Z,58.80
2019-05-25T17:04:26.583Z,59.60
2019-05-25T17:06:55.902Z,60.60
2019-05-25T17:09:25.567Z,59.70
2019-05-25T17:11:54.863Z,58.90
2019-05-25T17:14:24.178Z,61.50
2019-05-25T17:16:53.490Z,60.30
2019-05-25T17:19:22.793Z,59.70
2019-05-25T17:21:52.137Z,60.00
2019-05-25T17:24:21.416Z,60.40
2019-05-25T17:26:50.818Z,62.00
2019-05-25T17:29:20.128Z,62.00
2019-05-25T17:31:49.446Z,63.00
2019-05-25T17:34:19.784Z,63.20
2019-05-25T17:36:49.098Z,63.70
2019-05-25T17:39:18.429Z,64.20
2019-05-25T17:41:47.795Z,63.70
2019-05-25T17:44:17.191Z,64.90
2019-05-25T17:46:46.526Z,64.10
2019-05-25T17:49:16.785Z,63.50
2019-05-25T17:51:46.101Z,64.90
2019-05-25T17:54:15.450Z,65.90
2019-05-25T17:56:44.778Z,66.50
2019-05-25T17:59:14.066Z,67.00
2019-05-25T18:01:43.374Z,66.90
2019-05-25T18:04:13.596Z,67.50
2019-05-25T18:06:43.706Z,66.70
2019-05-25T18:09:13.917Z,66.80
2019-05-25T18:11:44.175Z,66.70
2019-05-25T18:14:14.154Z,67.70
2019-05-25T18:16:44.378Z,68.00
2019-05-25T18:19:14.622Z,67.20
2019-05-25T18:21:44.932Z,67.50
2019-05-25T18:24:15.723Z,67.10
2019-05-25T18:26:45.371Z,66.80
2019-05-25T18:29:15.115Z,66.20
2019-05-25T18:31:45.381Z,66.40
2019-05-25T18:34:22.038Z,67.30
2019-05-25T18:36:46.474Z,67.00
2019-05-25T18:39:15.750Z,68.40
2019-05-25T18:41:45.743Z,69.00
2019-05-25T18:44:16.018Z,69.60
2019-05-25T18:46:46.061Z,70.50
2019-05-25T18:49:16.519Z,69.60
2019-05-25T18:51:46.345Z,69.70
2019-05-25T18:54:16.606Z,72.30
2019-05-25T18:56:46.634Z,72.10
2019-05-25T18:59:16.843Z,74.70
2019-05-25T19:01:46.950Z,74.10
2019-05-25T19:04:19.782Z,74.10
2019-05-25T19:06:49.211Z,74.20
2019-05-25T19:09:18.747Z,74.10
2019-05-25T19:11:48.336Z,74.60
2019-05-25T19:14:17.748Z,74.40
2019-05-25T19:16:47.919Z,76.40
2019-05-25T19:19:18.042Z,79.40
2019-05-25T19:21:48.129Z,79.40
2019-05-25T19:24:18.247Z,80.50
2019-05-25T19:26:48.525Z,80.80
2019-05-25T19:29:18.597Z,82.00
2019-05-25T19:31:48.692Z,81.80
2019-05-25T19:34:18.900Z,82.50
2019-05-25T19:36:49.013Z,82.80
2019-05-25T19:39:19.210Z,84.00
2019-05-25T19:41:49.299Z,86.20
2019-05-25T19:44:19.536Z,86.80
2019-05-25T19:46:49.717Z,88.40
2019-05-25T19:49:19.953Z,88.90
2019-05-25T19:51:49.893Z,90.10
2019-05-25T19:54:20.185Z,90.90
2019-05-25T19:56:50.232Z,90.80
2019-05-25T19:59:20.450Z,90.70
2019-05-25T20:01:50.487Z,91.20
2019-05-25T20:04:20.721Z,91.00
2019-05-25T20:06:50.880Z,91.30
2019-05-25T20:09:21.116Z,91.60
2019-05-25T20:11:51.089Z,91.70
2019-05-25T20:14:21.353Z,92.00
2019-05-25T20:16:51.757Z,92.20
2019-05-25T20:19:21.859Z,92.10
2019-05-25T20:21:51.750Z,92.60
2019-05-25T20:24:21.944Z,92.90
2019-05-25T20:26:52.016Z,93.00
2019-05-25T20:29:22.251Z,93.90
2019-05-25T20:31:52.126Z,94.00
2019-05-25T20:34:22.196Z,94.00
2019-05-25T20:36:52.230Z,94.10
2019-05-25T20:39:22.167Z,94.40
2019-05-25T20:41:52.297Z,94.40
2019-05-25T20:44:22.314Z,94.60
2019-05-25T20:46:52.607Z,94.80
2019-05-25T20:49:22.318Z,95.00
2019-05-25T20:51:52.283Z,95.10
2019-05-25T20:54:22.345Z,95.40
2019-05-25T20:56:52.366Z,95.30
2019-05-25T20:59:22.399Z,95.70
2019-05-25T21:01:52.405Z,95.70
2019-05-25T21:04:22.438Z,96.10
2019-05-25T21:06:52.465Z,96.20
2019-05-25T21:09:22.467Z,96.60
2019-05-25T21:11:55.800Z,96.50
2019-05-25T21:14:23.543Z,96.60
2019-05-25T21:16:52.847Z,96.50
2019-05-25T21:19:22.596Z,96.60
2019-05-25T21:21:52.638Z,96.90
2019-05-25T21:24:22.731Z,97.30
2019-05-25T21:26:52.666Z,97.60
2019-05-25T21:29:22.755Z,97.50
2019-05-25T21:31:52.697Z,97.50
2019-05-25T21:34:22.793Z,97.30
2019-05-25T21:36:52.702Z,98.50
2019-05-25T21:39:22.740Z,98.40
2019-05-25T21:41:52.754Z,98.30
2019-05-25T21:44:23.297Z,98.20
2019-05-25T21:46:52.815Z,98.40
2019-05-25T21:49:22.829Z,98.40
2019-05-25T21:51:52.941Z,98.40
2019-05-25T21:54:22.999Z,99.00
2019-05-25T21:56:52.977Z,99.30
2019-05-25T21:59:23.009Z,99.40
2019-05-25T22:01:53.049Z,99.40
2019-05-25T22:04:23.051Z,99.50
2019-05-25T22:06:53.126Z,99.70
2019-05-25T22:09:23.033Z,99.80
2019-05-25T22:11:53.071Z,99.90
2019-05-25T22:14:23.357Z,99.90
2019-05-25T22:16:53.726Z,99.90
2019-05-25T22:19:23.076Z,99.90
2019-05-25T22:21:53.216Z,99.90
2019-05-25T22:24:23.210Z,99.90
2019-05-25T22:26:53.246Z,99.90
2019-05-25T22:29:23.207Z,99.90
2019-05-25T22:31:53.325Z,99.90
2019-05-25T22:34:23.214Z,99.90
2019-05-25T22:36:53.320Z,99.90
2019-05-25T22:39:23.248Z,99.90
2019-05-25T22:41:53.347Z,99.90
2019-05-25T22:44:23.315Z,99.90
2019-05-25T22:46:53.399Z,99.90
2019-05-25T22:49:23.723Z,99.90
2019-05-25T22:51:53.378Z,99.90
2019-05-25T22:54:23.383Z,99.90
2019-05-25T22:56:53.474Z,99.90
2019-05-25T22:59:23.481Z,99.90
2019-05-25T23:01:53.538Z,99.90
2019-05-25T23:04:23.501Z,99.90
2019-05-25T23:06:58.221Z,99.90
2019-05-25T23:09:24.531Z,99.90
2019-05-25T23:11:53.830Z,99.90
2019-05-25T23:14:23.593Z,99.90
2019-05-25T23:16:53.660Z,99.90
2019-05-25T23:19:23.657Z,99.90
2019-05-25T23:21:53.694Z,99.90
2019-05-25T23:24:23.744Z,99.90
2019-05-25T23:26:53.753Z,99.90
2019-05-25T23:29:23.788Z,99.90
2019-05-25T23:31:53.794Z,99.90
2019-05-25T23:34:23.834Z,99.90
2019-05-25T23:36:53.845Z,99.90
2019-05-25T23:39:23.850Z,99.90
2019-05-25T23:41:53.871Z,99.90
2019-05-25T23:44:23.917Z,99.90
2019-05-25T23:46:54.198Z,99.90
2019-05-25T23:49:23.972Z,99.90
2019-05-25T23:51:54.141Z,99.90
2019-05-25T23:54:24.011Z,99.90
2019-05-25T23:56:54.105Z,99.90
2019-05-25T23:59:24.096Z,99.90
